Time;durP1;ratioP1;P1;durP2;ratioP2;P2;SDS_P1;SDS_P2;PMS_P1;PMS_P2;Temp;Humidity;BMP_temperature;BMP_pressure;BME280_temperature;BME280_humidity;BME280_pressure;Samples;Min_cycle;Max_cycle;Signal;HPM_P1;HPM_P2
2021/06/01 00:01:37;;;;;;;0.40;0.40;;;;;;;11.80;80.93;100465.84;5025076;28;20487;-51
2021/06/01 00:04:05;;;;;;;0.30;0.20;;;;;;;11.43;83.42;100462.50;5020922;28;20688;-51
2021/06/01 00:06:33;;;;;;;0.30;0.20;;;;;;;11.69;82.47;100456.41;5017129;28;20452;-50
2021/06/01 00:09:01;;;;;;;0.30;0.20;;;;;;;11.64;82.82;100464.53;5022712;28;20463;-51
2021/06/01 00:11:27;;;;;;;0.30;0.20;;;;;;;11.69;82.79;100461.75;5025352;28;20534;-51
2021/06/01 00:13:55;;;;;;;1.73;0.50;;;;;;;11.64;83.01;100476.97;5021346;28;20506;-50
2021/06/01 00:16:22;;;;;;;0.30;0.20;;;;;;;11.52;82.97;100468.44;5018605;28;20521;-51
2021/06/01 00:18:49;;;;;;;0.30;0.20;;;;;;;11.45;84.67;100477.53;5030469;28;20968;-51
2021/06/01 00:21:16;;;;;;;0.37;0.20;;;;;;;11.30;85.29;100482.41;5018211;28;20577;-51
2021/06/01 00:23:43;;;;;;;0.30;0.20;;;;;;;11.32;84.52;100476.13;5022261;28;20456;-51
2021/06/01 00:26:11;;;;;;;0.30;0.20;;;;;;;11.14;84.85;100477.53;5024860;28;20464;-51
2021/06/01 00:28:39;;;;;;;0.40;0.30;;;;;;;11.38;84.84;100481.28;5022026;28;20509;-51
2021/06/01 00:31:07;;;;;;;0.30;0.20;;;;;;;11.39;84.49;100483.03;5018489;28;20482;-51
2021/06/01 00:33:34;;;;;;;0.30;0.20;;;;;;;11.67;83.74;100495.53;5020570;28;20452;-52
2021/06/01 00:36:01;;;;;;;0.60;0.60;;;;;;;11.51;84.33;100482.69;5024828;28;20452;-51
2021/06/01 00:38:28;;;;;;;0.30;0.20;;;;;;;11.36;85.67;100487.53;5022978;28;20498;-52
2021/06/01 00:40:56;;;;;;;0.30;0.20;;;;;;;11.50;85.23;100490.69;5017777;28;21023;-51
2021/06/01 00:43:23;;;;;;;0.30;0.20;;;;;;;11.36;86.08;100488.41;5022139;28;20457;-51
2021/06/01 00:45:50;;;;;;;0.40;0.30;;;;;;;11.19;86.82;100488.91;5028869;28;20484;-51
2021/06/01 00:48:17;;;;;;;0.30;0.20;;;;;;;11.23;86.69;100485.22;5026819;28;20952;-51
2021/06/01 00:50:44;;;;;;;0.30;0.20;;;;;;;11.13;86.55;100489.09;5048371;28;20471;-51
2021/06/01 00:53:10;;;;;;;0.30;0.20;;;;;;;11.16;85.97;100489.00;5023042;28;20799;-51
2021/06/01 00:55:37;;;;;;;0.50;0.47;;;;;;;10.71;87.46;100485.78;5028677;28;20593;-51
2021/06/01 00:58:04;;;;;;;0.30;0.20;;;;;;;10.91;86.82;100477.28;5035143;28;20495;-51
2021/06/01 01:03:08;;;;;;;0.30;0.30;;;;;;;10.54;88.13;100485.31;5021867;28;20506;-51
2021/06/01 01:05:38;;;;;;;0.30;0.20;;;;;;;10.65;88.08;100486.81;5027302;28;20457;-51
2021/06/01 01:11:20;;;;;;;0.30;0.20;;;;;;;10.85;87.43;100496.94;5026638;28;20521;-51
2021/06/01 01:13:50;;;;;;;0.30;0.20;;;;;;;10.86;87.36;100500.47;5026792;28;20479;-51
2021/06/01 01:16:20;;;;;;;0.30;0.20;;;;;;;10.92;86.26;100493.19;5028021;28;20521;-52
2021/06/01 01:18:53;;;;;;;0.30;0.20;;;;;;;10.52;87.67;100485.38;5029307;28;20475;-51
2021/06/01 01:21:42;;;;;;;0.50;0.50;;;;;;;10.51;88.11;100501.34;5021033;28;20497;-51
2021/06/01 01:24:33;;;;;;;0.30;0.20;;;;;;;10.74;87.29;100498.13;5021308;28;20527;-51
2021/06/01 01:27:00;;;;;;;0.30;0.20;;;;;;;10.95;86.41;100498.41;5024221;28;20468;-51
2021/06/01 01:29:59;;;;;;;0.40;0.40;;;;;;;10.80;86.81;100503.28;5027921;28;20589;-51
2021/06/01 01:32:32;;;;;;;0.50;0.50;;;;;;;10.43;89.69;100498.91;5019012;28;20510;-51
2021/06/01 01:35:00;;;;;;;0.30;0.20;;;;;;;10.49;88.83;100505.84;5023725;28;20448;-51
2021/06/01 01:37:28;;;;;;;0.30;0.20;;;;;;;10.32;89.24;100507.13;5020788;28;20979;-52
2021/06/01 01:39:59;;;;;;;0.30;0.20;;;;;;;10.33;89.50;100502.69;5024595;28;20529;-51
2021/06/01 01:42:43;;;;;;;0.30;0.20;;;;;;;10.07;90.50;100504.16;5027644;28;20484;-52
2021/06/01 01:45:19;;;;;;;0.30;0.20;;;;;;;10.09;90.36;100494.34;5026730;28;20451;-51
2021/06/01 01:50:20;;;;;;;0.30;0.20;;;;;;;10.05;90.70;100498.00;5046974;28;20995;-52
2021/06/01 01:52:48;;;;;;;0.30;0.20;;;;;;;10.09;90.35;100490.81;5025274;28;20483;-52
2021/06/01 01:55:16;;;;;;;0.40;0.40;;;;;;;10.09;90.50;100493.47;5027337;28;20505;-52
2021/06/01 01:57:46;;;;;;;0.30;0.20;;;;;;;9.79;92.17;100495.94;5030855;28;20478;-51
2021/06/01 02:00:16;;;;;;;0.30;0.20;;;;;;;9.93;92.10;100492.09;5020491;28;20471;-52
2021/06/01 02:02:48;;;;;;;0.30;0.20;;;;;;;9.90;91.60;100497.47;5023123;28;20496;-52
2021/06/01 02:05:17;;;;;;;0.30;0.20;;;;;;;10.01;91.16;100496.34;5027162;28;20540;-52
2021/06/01 02:07:44;;;;;;;0.30;0.20;;;;;;;9.80;90.91;100496.81;5026015;28;20510;-52
2021/06/01 02:10:11;;;;;;;0.30;0.20;;;;;;;10.04;90.68;100496.25;5020363;28;20908;-52
2021/06/01 02:12:38;;;;;;;0.30;0.20;;;;;;;9.54;91.68;100500.00;5021688;28;20510;-51
2021/06/01 02:15:08;;;;;;;0.30;0.20;;;;;;;9.72;91.28;100491.66;5032486;28;20452;-52
2021/06/01 02:17:35;;;;;;;0.30;0.20;;;;;;;9.79;91.10;100495.06;5025807;28;20447;-52
2021/06/01 02:20:04;;;;;;;0.30;0.20;;;;;;;9.69;91.35;100494.38;5027622;28;20523;-51
2021/06/01 02:25:16;;;;;;;0.30;0.20;;;;;;;9.11;94.89;100498.22;5025268;28;20510;-52
2021/06/01 02:27:58;;;;;;;0.30;0.20;;;;;;;9.06;95.36;100501.88;5027222;28;20525;-51
2021/06/01 02:30:38;;;;;;;0.30;0.20;;;;;;;9.24;94.65;100492.69;5024436;28;20500;-51
2021/06/01 02:33:05;;;;;;;0.40;0.30;;;;;;;9.11;94.81;100498.22;5020066;28;20447;-52
2021/06/01 02:35:38;;;;;;;0.30;0.20;;;;;;;9.15;94.95;100491.94;5020283;28;20511;-52
2021/06/01 02:38:06;;;;;;;0.60;0.60;;;;;;;9.39;94.64;100495.91;5021180;28;20472;-52
2021/06/01 02:40:35;;;;;;;0.30;0.20;;;;;;;9.38;93.08;100499.47;5020099;28;20544;-52
2021/06/01 02:43:10;;;;;;;0.30;0.20;;;;;;;9.47;93.66;100495.75;5025381;28;20445;-52
2021/06/01 02:45:38;;;;;;;0.40;0.30;;;;;;;9.46;93.82;100496.66;5026845;28;20448;-51
2021/06/01 02:48:08;;;;;;;0.30;0.20;;;;;;;9.53;93.18;100494.75;5023202;28;20494;-52
2021/06/01 02:50:35;;;;;;;0.30;0.20;;;;;;;9.62;93.62;100492.78;5046313;28;20472;-52
2021/06/01 02:53:05;;;;;;;0.50;0.50;;;;;;;9.56;93.81;100498.19;5022010;28;20942;-52
2021/06/01 02:55:32;;;;;;;0.30;0.20;;;;;;;9.55;94.50;100492.94;5026319;28;21250;-52
2021/06/01 02:57:59;;;;;;;0.30;0.20;;;;;;;9.36;95.19;100489.78;5032150;28;20510;-52
2021/06/01 03:00:26;;;;;;;0.40;0.33;;;;;;;9.50;94.23;100493.91;5017958;28;20852;-52
2021/06/01 03:02:53;;;;;;;0.30;0.20;;;;;;;9.27;95.47;100492.63;5021154;28;20519;-52
2021/06/01 03:05:20;;;;;;;0.30;0.20;;;;;;;9.10;96.37;100493.81;5025707;28;20495;-51
2021/06/01 03:07:53;;;;;;;0.83;0.83;;;;;;;9.28;94.75;100497.88;5024948;28;20503;-52
2021/06/01 03:10:21;;;;;;;0.30;0.20;;;;;;;9.31;95.38;100499.59;5019289;28;20517;-51
2021/06/01 03:12:50;;;;;;;0.30;0.20;;;;;;;9.27;94.72;100492.63;5019828;28;20448;-52
2021/06/01 03:15:17;;;;;;;0.30;0.20;;;;;;;8.93;95.93;100492.41;5026492;28;20503;-51
2021/06/01 03:17:43;;;;;;;0.30;0.20;;;;;;;9.11;94.36;100486.75;5025767;28;20944;-51
2021/06/01 03:20:11;;;;;;;0.30;0.20;;;;;;;9.33;94.54;100481.91;5032449;28;20518;-51
2021/06/01 03:22:37;;;;;;;0.30;0.20;;;;;;;8.81;95.88;100485.56;5019092;28;20492;-51
2021/06/01 03:25:04;;;;;;;0.30;0.20;;;;;;;8.71;98.05;100491.91;5025687;28;20452;-52
2021/06/01 03:27:31;;;;;;;1.37;0.43;;;;;;;8.82;97.91;100497.91;5025893;28;20456;-49
2021/06/01 03:29:58;;;;;;;0.30;0.20;;;;;;;8.85;96.73;100490.75;5019694;28;20494;-49
2021/06/01 03:32:25;;;;;;;0.30;0.20;;;;;;;8.69;98.16;100491.06;5019283;28;20527;-49
2021/06/01 03:34:52;;;;;;;0.30;0.20;;;;;;;8.60;97.96;100492.97;5025689;28;20448;-50
2021/06/01 03:37:19;;;;;;;0.40;0.30;;;;;;;8.60;98.43;100497.38;5013710;28;20503;-50
2021/06/01 03:39:45;;;;;;;0.30;0.20;;;;;;;8.64;98.30;100492.94;5025651;28;20476;-50
2021/06/01 03:42:12;;;;;;;0.40;0.30;;;;;;;8.48;97.91;100494.94;5026668;28;20500;-49
2021/06/01 03:44:43;;;;;;;0.30;0.20;;;;;;;8.82;96.12;100496.13;5020786;28;20866;-49
2021/06/01 03:47:10;;;;;;;0.30;0.20;;;;;;;8.70;96.07;100496.34;5019342;28;20453;-49
2021/06/01 03:49:37;;;;;;;0.30;0.20;;;;;;;8.58;96.08;100499.19;5042412;28;20498;-50
2021/06/01 03:52:08;;;;;;;0.30;0.20;;;;;;;8.69;96.38;100497.25;5032392;28;20445;-49
2021/06/01 03:54:36;;;;;;;0.30;0.20;;;;;;;8.52;97.42;100497.53;5023337;28;20547;-49
2021/06/01 03:57:04;;;;;;;5.57;2.40;;;;;;;8.63;97.07;100499.09;5025932;28;20522;-49
2021/06/01 03:59:31;;;;;;;0.30;0.20;;;;;;;8.64;96.23;100492.94;5021444;28;20492;-49
2021/06/01 04:01:57;;;;;;;0.30;0.20;;;;;;;8.44;96.80;100493.25;5026155;28;20527;-49
2021/06/01 04:04:24;;;;;;;0.30;0.20;;;;;;;8.62;96.74;100498.22;5022250;28;20456;-49
2021/06/01 04:06:51;;;;;;;0.30;0.20;;;;;;;8.57;97.03;100493.03;5021941;28;20856;-49
2021/06/01 04:09:17;;;;;;;0.30;0.20;;;;;;;8.57;98.34;100495.69;5032451;28;20443;-50
2021/06/01 04:11:44;;;;;;;0.30;0.20;;;;;;;8.68;98.25;100491.97;5019125;28;20501;-49
2021/06/01 04:14:11;;;;;;;0.30;0.20;;;;;;;8.73;99.05;100483.03;5020805;28;20500;-49
2021/06/01 04:16:37;;;;;;;0.30;0.20;;;;;;;8.63;99.84;100491.16;5025576;28;20456;-49
2021/06/01 04:19:05;;;;;;;1.57;1.57;;;;;;;8.63;100.00;100491.16;5016539;28;20805;-49
2021/06/01 04:21:33;;;;;;;0.30;0.20;;;;;;;8.60;100.00;100486.78;5023505;28;20484;-50
2021/06/01 04:23:59;;;;;;;2.00;2.00;;;;;;;8.89;100.00;100483.63;5047808;28;20502;-49
2021/06/01 04:26:29;;;;;;;0.30;0.20;;;;;;;9.16;100.00;100482.22;5018409;28;20944;-50
2021/06/01 04:28:58;;;;;;;0.30;0.20;;;;;;;9.43;99.00;100486.97;5019340;28;20473;-49
2021/06/01 04:31:25;;;;;;;0.30;0.20;;;;;;;10.43;94.99;100487.41;5025154;28;20527;-49
2021/06/01 04:33:54;;;;;;;0.30;0.20;;;;;;;11.15;89.83;100489.03;5024668;28;20484;-49
2021/06/01 04:36:22;;;;;;;0.30;0.20;;;;;;;12.16;83.98;100487.78;5019016;28;20506;-50
2021/06/01 04:38:48;;;;;;;0.30;0.20;;;;;;;12.78;80.00;100483.09;5017427;28;20516;-49
2021/06/01 04:41:15;;;;;;;0.30;0.20;;;;;;;13.33;77.59;100490.06;5024284;28;20499;-50
2021/06/01 04:43:41;;;;;;;0.30;0.20;;;;;;;13.79;75.40;100491.84;5025122;28;20804;-50
2021/06/01 04:46:08;;;;;;;0.50;0.50;;;;;;;14.14;73.90;100487.81;5018671;28;20451;-50
2021/06/01 04:48:35;;;;;;;0.40;0.40;;;;;;;14.18;72.77;100481.41;5031363;28;20467;-50
2021/06/01 04:51:02;;;;;;;0.40;0.30;;;;;;;14.33;72.92;100487.06;5042967;28;20912;-49
2021/06/01 04:53:28;;;;;;;0.30;0.20;;;;;;;14.70;71.13;100481.09;5018683;28;20483;-49
2021/06/01 04:55:55;;;;;;;0.30;0.20;;;;;;;14.97;70.20;100477.22;5025554;28;20448;-49
2021/06/01 04:58:22;;;;;;;0.30;0.20;;;;;;;15.06;69.49;100487.50;5029630;28;20509;-48
2021/06/01 05:00:48;;;;;;;0.33;0.30;;;;;;;15.21;68.91;100491.31;5019885;28;20498;-48
2021/06/01 05:03:15;;;;;;;0.57;0.50;;;;;;;15.17;68.26;100489.72;5016148;28;20489;-49
2021/06/01 05:05:42;;;;;;;0.40;0.20;;;;;;;15.34;68.26;100484.47;5022628;28;20514;-49
2021/06/01 05:08:08;;;;;;;0.40;0.40;;;;;;;15.68;67.67;100481.16;5025763;28;20530;-49
2021/06/01 05:10:35;;;;;;;0.87;0.87;;;;;;;15.60;68.09;100483.31;5020347;28;20894;-49
2021/06/01 05:13:01;;;;;;;0.40;0.20;;;;;;;15.63;67.19;100483.22;5018381;28;20456;-48
2021/06/01 05:15:28;;;;;;;0.40;0.20;;;;;;;16.04;66.60;100488.44;5023026;28;20448;-49
2021/06/01 05:17:54;;;;;;;0.40;0.20;;;;;;;15.72;67.37;100486.38;5027032;28;20452;-49
2021/06/01 05:20:21;;;;;;;0.40;0.20;;;;;;;16.19;65.40;100479.66;5022437;28;20500;-49
2021/06/01 05:22:48;;;;;;;0.40;0.20;;;;;;;16.19;65.31;100485.00;5024397;28;20858;-49
2021/06/01 05:25:15;;;;;;;0.40;0.20;;;;;;;15.85;66.45;100480.38;5021051;28;20482;-48
2021/06/01 05:27:42;;;;;;;0.40;0.30;;;;;;;16.04;65.85;100480.38;5017728;28;20453;-49
2021/06/01 05:30:09;;;;;;;0.40;0.20;;;;;;;16.25;65.77;100465.91;5025243;28;20472;-49
2021/06/01 05:35:22;;;;;;;0.70;0.70;;;;;;;16.73;64.24;100475.19;5025875;28;20439;-49
2021/06/01 05:37:51;;;;;;;0.40;0.20;;;;;;;16.92;63.87;100471.56;5022088;28;20443;-49
2021/06/01 05:40:18;;;;;;;0.40;0.20;;;;;;;16.70;64.46;100474.44;5023379;28;20879;-49
2021/06/01 05:42:44;;;;;;;0.40;0.20;;;;;;;16.68;64.76;100474.53;5028969;28;20520;-49
2021/06/01 05:45:12;;;;;;;0.40;0.20;;;;;;;16.73;64.35;100468.94;5028884;28;20447;-49
2021/06/01 05:47:39;;;;;;;1.50;1.40;;;;;;;17.01;63.45;100471.09;5022137;28;21183;-49
2021/06/01 05:50:06;;;;;;;0.67;0.67;;;;;;;17.07;63.97;100470.75;5047941;28;20853;-49
2021/06/01 05:52:35;;;;;;;0.50;0.40;;;;;;;17.58;63.37;100476.97;5027873;28;20453;-49
2021/06/01 05:55:06;;;;;;;0.40;0.20;;;;;;;18.18;61.37;100472.72;5028101;28;20525;-50
2021/06/01 05:57:33;;;;;;;0.40;0.20;;;;;;;17.69;62.25;100477.31;5030656;28;20533;-48
2021/06/01 06:00:00;;;;;;;1.13;0.47;;;;;;;17.58;62.50;100464.41;5021807;28;20468;-49
2021/06/01 06:02:27;;;;;;;0.40;0.27;;;;;;;17.88;62.64;100463.69;5026388;28;20865;-49
2021/06/01 06:04:54;;;;;;;0.40;0.20;;;;;;;18.10;62.15;100458.84;5028224;28;20455;-49
2021/06/01 06:07:21;;;;;;;0.40;0.20;;;;;;;18.62;61.07;100463.88;5024178;28;20509;-49
2021/06/01 06:09:48;;;;;;;0.90;0.90;;;;;;;17.94;63.23;100458.81;5021550;28;20882;-49
2021/06/01 06:12:15;;;;;;;0.40;0.30;;;;;;;18.26;62.23;100454.31;5025470;28;20511;-49
2021/06/01 06:14:42;;;;;;;0.40;0.27;;;;;;;18.38;62.64;100455.44;5027976;28;20535;-49
2021/06/01 06:17:33;;;;;;;0.50;0.40;;;;;;;18.83;61.10;100459.94;5024487;28;20452;-50
2021/06/01 06:20:04;;;;;;;0.40;0.20;;;;;;;18.77;60.98;100456.75;5026994;28;20513;-49
2021/06/01 06:22:31;;;;;;;9.43;1.10;;;;;;;18.37;62.63;100461.78;5027779;28;20538;-49
2021/06/01 06:24:57;;;;;;;0.40;0.20;;;;;;;18.78;61.55;100456.69;5021823;28;20501;-49
2021/06/01 06:27:24;;;;;;;0.50;0.50;;;;;;;18.88;61.34;100465.06;5020185;28;20445;-49
2021/06/01 06:29:51;;;;;;;0.40;0.20;;;;;;;18.70;61.14;100463.47;5027431;28;20985;-49
2021/06/01 06:32:18;;;;;;;0.67;0.67;;;;;;;19.29;59.83;100461.66;5027864;28;20502;-49
2021/06/01 06:34:45;;;;;;;0.40;0.20;;;;;;;19.30;59.97;100466.09;5021584;28;20452;-50
2021/06/01 06:37:12;;;;;;;0.63;0.40;;;;;;;18.69;61.11;100468.00;5020712;28;20444;-50
2021/06/01 06:39:39;;;;;;;0.40;0.20;;;;;;;18.79;61.82;100460.25;5025941;28;20476;-50
2021/06/01 06:42:06;;;;;;;0.50;0.30;;;;;;;19.03;59.76;100465.94;5027301;28;20526;-50
2021/06/01 06:44:33;;;;;;;0.50;0.37;;;;;;;19.44;59.91;100466.09;5021978;28;20943;-49
2021/06/01 06:49:38;;;;;;;0.40;0.20;;;;;;;19.98;57.65;100461.75;5033010;28;20520;-49
2021/06/01 06:52:09;;;;;;;0.40;0.20;;;;;;;19.49;58.66;100469.38;5033669;28;20490;-49
2021/06/01 06:54:36;;;;;;;0.40;0.20;;;;;;;19.89;59.08;100469.59;5024923;28;20497;-49
2021/06/01 06:57:04;;;;;;;0.40;0.20;;;;;;;19.23;60.10;100469.19;5027404;28;21021;-49
2021/06/01 06:59:31;;;;;;;0.50;0.40;;;;;;;19.77;59.32;100464.03;5022069;28;20473;-49
2021/06/01 07:01:58;;;;;;;0.40;0.20;;;;;;;19.85;58.74;100473.44;5026579;28;20464;-50
2021/06/01 07:04:25;;;;;;;0.40;0.20;;;;;;;19.75;58.79;100470.47;5025766;28;20459;-49
2021/06/01 07:06:53;;;;;;;0.40;0.20;;;;;;;19.52;58.09;100479.97;5019990;28;20467;-49
2021/06/01 07:09:20;;;;;;;0.40;0.30;;;;;;;19.59;58.08;100472.38;5021414;28;20836;-49
2021/06/01 07:11:46;;;;;;;0.40;0.20;;;;;;;19.61;58.05;100468.66;5027018;28;20449;-48
2021/06/01 07:14:16;;;;;;;0.40;0.20;;;;;;;19.81;57.70;100465.53;5025495;28;20873;-49
2021/06/01 07:16:44;;;;;;;0.47;0.30;;;;;;;20.09;57.88;100453.84;5019818;28;20953;-49
2021/06/01 07:19:12;;;;;;;0.40;0.20;;;;;;;19.59;57.84;100454.38;5033229;28;20448;-49
2021/06/01 07:21:39;;;;;;;0.70;0.70;;;;;;;20.13;57.47;100443.69;5019702;28;20960;-50
2021/06/01 07:24:06;;;;;;;0.40;0.20;;;;;;;19.94;56.94;100448.56;5019982;28;20503;-50
2021/06/01 07:26:33;;;;;;;0.40;0.20;;;;;;;20.09;56.74;100443.03;5026131;28;20480;-49
2021/06/01 07:29:00;;;;;;;0.50;0.40;;;;;;;20.34;56.01;100430.63;5026220;28;20458;-50
2021/06/01 07:31:26;;;;;;;0.40;0.20;;;;;;;20.66;56.66;100429.34;5020749;28;20467;-50
2021/06/01 07:33:53;;;;;;;0.40;0.20;;;;;;;20.56;56.21;100432.75;5019592;28;20875;-50
2021/06/01 07:36:20;;;;;;;0.50;0.30;;;;;;;20.94;53.19;100435.53;5025097;28;21036;-49
2021/06/01 07:38:46;;;;;;;0.50;0.30;;;;;;;20.90;54.65;100434.03;5026465;28;20799;-49
2021/06/01 07:41:13;;;;;;;0.40;0.20;;;;;;;20.73;53.20;100426.22;5021375;28;20547;-50
2021/06/01 07:43:40;;;;;;;0.40;0.20;;;;;;;21.20;52.49;100426.47;5019479;28;20993;-49
2021/06/01 07:46:11;;;;;;;0.40;0.20;;;;;;;21.01;53.35;100426.06;5024304;28;20482;-50
2021/06/01 07:48:39;;;;;;;0.40;0.20;;;;;;;21.32;52.53;100426.63;5030080;28;20525;-50
2021/06/01 07:51:10;;;;;;;0.40;0.20;;;;;;;20.77;51.42;100425.03;5043719;28;20488;-49
2021/06/01 07:53:39;;;;;;;0.40;0.20;;;;;;;20.22;50.23;100421.50;5019419;28;20946;-50
2021/06/01 07:56:10;;;;;;;0.40;0.20;;;;;;;20.36;51.21;100417.88;5027137;28;20459;-49
2021/06/01 07:58:37;;;;;;;3.17;1.13;;;;;;;20.24;51.30;100419.56;5029821;28;20468;-50
2021/06/01 08:01:04;;;;;;;0.40;0.20;;;;;;;20.78;52.25;100419.53;5022793;28;20517;-49
2021/06/01 08:03:30;;;;;;;0.50;0.33;;;;;;;21.26;50.85;100419.81;5019287;28;20885;-50
2021/06/01 08:05:57;;;;;;;0.40;0.20;;;;;;;21.46;50.98;100412.97;5022524;28;21004;-49
2021/06/01 08:08:23;;;;;;;0.40;0.20;;;;;;;21.31;48.90;100417.66;5026067;28;20488;-49
2021/06/01 08:10:54;;;;;;;0.50;0.50;;;;;;;20.90;50.57;100404.31;5023458;28;20502;-51
2021/06/01 08:13:20;;;;;;;0.40;0.20;;;;;;;21.12;50.72;100411.78;5019284;28;20443;-50
2021/06/01 08:15:51;;;;;;;0.40;0.30;;;;;;;20.92;51.26;100410.47;5022093;28;20479;-49
2021/06/01 08:18:19;;;;;;;0.50;0.40;;;;;;;21.44;49.82;100407.69;5030407;28;20872;-50
2021/06/01 08:23:25;;;;;;;0.40;0.20;;;;;;;21.32;49.71;100403.16;5018831;28;20475;-50
2021/06/01 08:25:52;;;;;;;0.40;0.20;;;;;;;21.78;47.51;100405.22;5019047;28;20874;-50
2021/06/01 08:28:19;;;;;;;1.57;1.47;;;;;;;21.91;48.68;100402.47;5025411;28;20452;-49
2021/06/01 08:30:46;;;;;;;0.40;0.20;;;;;;;21.61;48.69;100401.03;5025862;28;20468;-49
2021/06/01 08:33:13;;;;;;;0.40;0.20;;;;;;;21.36;48.11;100401.94;5019563;28;20448;-49
2021/06/01 08:35:39;;;;;;;0.40;0.20;;;;;;;21.14;48.16;100399.88;5018407;28;21059;-49
2021/06/01 08:38:06;;;;;;;0.40;0.20;;;;;;;21.94;47.52;100386.03;5025388;28;20526;-49
2021/06/01 08:40:33;;;;;;;0.40;0.20;;;;;;;21.99;45.88;100384.69;5025539;28;20468;-49
2021/06/01 08:42:59;;;;;;;0.50;0.30;;;;;;;22.20;46.90;100390.38;5019488;28;21082;-49
2021/06/01 08:45:26;;;;;;;0.50;0.30;;;;;;;22.49;45.56;100393.59;5018548;28;20511;-49
2021/06/01 08:47:56;;;;;;;0.40;0.30;;;;;;;22.72;44.46;100387.25;5031735;28;20506;-49
2021/06/01 08:50:23;;;;;;;0.40;0.30;;;;;;;22.87;44.05;100385.22;5045034;28;20543;-49
2021/06/01 08:52:49;;;;;;;0.40;0.20;;;;;;;22.52;45.98;100382.53;5022916;28;20464;-49
2021/06/01 08:55:16;;;;;;;0.50;0.30;;;;;;;21.96;44.97;100378.66;5025221;28;20855;-49
2021/06/01 08:57:43;;;;;;;0.50;0.50;;;;;;;21.89;44.81;100379.09;5028958;28;20491;-49
2021/06/01 09:00:12;;;;;;;0.50;0.40;;;;;;;22.26;45.18;100387.22;5015493;28;20472;-49
2021/06/01 09:02:38;;;;;;;0.40;0.20;;;;;;;22.75;44.48;100376.19;5022201;28;20932;-49
2021/06/01 09:05:07;;;;;;;0.40;0.20;;;;;;;22.51;44.78;100369.97;5022281;28;20448;-49
2021/06/01 09:07:58;;;;;;;0.40;0.20;;;;;;;22.51;45.55;100364.53;5025174;28;20871;-49
2021/06/01 09:21:13;;;;;;;0.40;0.20;;;;;;;22.31;42.88;100363.34;5022024;28;20468;-51
2021/06/01 09:23:56;;;;;;;0.40;0.30;;;;;;;22.30;44.96;100358.03;5024988;28;21024;-50
2021/06/01 09:27:01;;;;;;;0.40;0.20;;;;;;;22.50;45.64;100351.97;5029245;28;20444;-49
2021/06/01 09:29:30;;;;;;;0.40;0.20;;;;;;;22.24;46.46;100340.44;5007675;28;20852;-50
2021/06/01 09:32:03;;;;;;;5.10;0.60;;;;;;;22.52;43.93;100357.28;5026860;28;20451;-50
2021/06/01 09:34:46;;;;;;;0.40;0.20;;;;;;;23.21;42.05;100344.59;5022141;28;20857;-50
2021/06/01 09:37:19;;;;;;;0.40;0.20;;;;;;;22.74;42.86;100346.47;5021751;28;20449;-50
2021/06/01 09:40:03;;;;;;;0.40;0.20;;;;;;;23.27;42.47;100342.25;5026105;28;20836;-50
2021/06/01 09:42:31;;;;;;;0.40;0.20;;;;;;;22.97;41.81;100347.41;5028321;28;20872;-50
2021/06/01 09:45:17;;;;;;;0.40;0.20;;;;;;;22.21;42.13;100351.50;5026906;28;20452;-50
2021/06/01 09:47:44;;;;;;;0.40;0.20;;;;;;;22.65;43.41;100330.97;5032863;28;20455;-49
2021/06/01 09:50:27;;;;;;;1.27;0.80;;;;;;;22.60;42.41;100323.16;5047961;28;20983;-50
2021/06/01 09:52:57;;;;;;;0.47;0.33;;;;;;;22.93;39.37;100337.81;5023420;28;20471;-50
2021/06/01 09:55:35;;;;;;;0.40;0.20;;;;;;;23.23;37.85;100327.22;5018718;28;20456;-50
2021/06/01 09:58:05;;;;;;;0.40;0.20;;;;;;;23.53;36.07;100315.72;5034905;28;20459;-50
2021/06/01 10:00:36;;;;;;;0.40;0.30;;;;;;;23.65;37.34;100311.16;5021602;28;20538;-50
2021/06/01 10:03:18;;;;;;;0.40;0.20;;;;;;;23.01;37.16;100316.34;5021777;28;20476;-50
2021/06/01 10:05:48;;;;;;;0.40;0.20;;;;;;;23.08;35.75;100320.31;5024936;28;20441;-50
2021/06/01 10:08:19;;;;;;;0.40;0.20;;;;;;;23.52;36.70;100319.41;5028199;28;20457;-49
2021/06/01 10:11:04;;;;;;;0.50;0.30;;;;;;;23.72;36.93;100306.97;5025412;28;20518;-50
2021/06/01 10:13:34;;;;;;;0.40;0.20;;;;;;;24.29;37.31;100304.91;5021277;28;20455;-50
2021/06/01 10:16:10;;;;;;;0.40;0.20;;;;;;;23.58;36.81;100304.53;5021853;28;20476;-50
2021/06/01 10:18:42;;;;;;;0.40;0.30;;;;;;;24.34;35.42;100298.09;5027757;28;20494;-50
2021/06/01 10:21:14;;;;;;;0.50;0.40;;;;;;;23.72;34.93;100306.09;5021201;28;20472;-50
2021/06/01 10:23:43;;;;;;;6.77;2.07;;;;;;;23.77;35.87;100304.72;5024802;28;20488;-50
2021/06/01 10:26:12;;;;;;;0.50;0.30;;;;;;;23.57;36.49;100302.75;5027768;28;20460;-50
2021/06/01 10:28:42;;;;;;;0.40;0.20;;;;;;;23.67;37.73;100303.75;5024794;28;20513;-50
2021/06/01 10:31:11;;;;;;;0.40;0.27;;;;;;;23.30;36.70;100306.75;5020763;28;20464;-50
2021/06/01 10:33:43;;;;;;;0.50;0.30;;;;;;;23.02;37.30;100307.22;5023080;28;20449;-50
2021/06/01 10:50:39;;;;;;;0.50;0.30;;;;;;;23.55;36.39;100283.00;5047388;28;20912;-51
2021/06/01 10:53:13;;;;;;;0.40;0.20;;;;;;;23.63;37.13;100288.72;5033705;28;20440;-51
2021/06/01 10:55:50;;;;;;;0.40;0.30;;;;;;;24.08;37.92;100283.13;5020601;28;20462;-51
2021/06/01 10:58:45;;;;;;;0.40;0.20;;;;;;;24.10;37.93;100272.97;5033314;28;20459;-51
2021/06/01 11:04:36;;;;;;;0.40;0.30;;;;;;;24.36;37.34;100278.94;5022145;28;20512;-51
2021/06/01 11:09:33;;;;;;;0.50;0.40;;;;;;;24.96;36.18;100272.72;5019988;28;20981;-51
2021/06/01 11:12:00;;;;;;;0.43;0.20;;;;;;;24.65;35.13;100273.69;5026272;28;20448;-50
2021/06/01 11:14:33;;;;;;;0.40;0.20;;;;;;;25.53;35.31;100270.34;5026970;28;20538;-51
2021/06/01 11:17:01;;;;;;;0.50;0.50;;;;;;;25.40;34.85;100270.63;5021815;28;20452;-51
2021/06/01 11:19:55;;;;;;;0.50;0.30;;;;;;;24.51;35.73;100262.16;5019320;28;20469;-51
2021/06/01 11:22:33;;;;;;;0.40;0.20;;;;;;;24.40;35.99;100262.25;5021673;28;20938;-51
2021/06/01 11:33:35;;;;;;;0.50;0.30;;;;;;;24.31;34.96;100244.00;5024243;28;20436;-51
2021/06/01 11:36:06;;;;;;;0.40;0.20;;;;;;;24.38;35.96;100245.19;5019478;28;20451;-51
2021/06/01 11:38:48;;;;;;;0.40;0.20;;;;;;;24.75;36.71;100252.84;5021643;28;20503;-51
2021/06/01 11:42:46;;;;;;;0.40;0.20;;;;;;;24.15;35.88;100241.72;5025962;28;20499;-52
2021/06/01 11:44:13;;;;;;;0.40;0.30;;;;;;;24.02;35.81;100242.91;5025994;28;20523;-51
2021/06/01 11:46:59;;;;;;;0.40;0.30;;;;;;;24.71;34.88;100235.09;5024814;28;20452;-51
2021/06/01 11:52:11;;;;;;;0.40;0.20;;;;;;;24.77;35.16;100234.53;5030662;28;20506;-51
2021/06/01 11:54:49;;;;;;;0.63;0.63;;;;;;;25.01;34.84;100232.38;5025473;28;20879;-52
2021/06/01 12:11:15;;;;;;;78.77;2.33;;;;;;;24.15;35.42;100217.28;5021461;28;20471;-49
2021/06/01 12:19:06;;;;;;;0.50;0.30;;;;;;;24.61;34.78;100202.41;5029143;28;20439;-50
2021/06/01 12:21:54;;;;;;;0.43;0.23;;;;;;;25.20;35.03;100198.94;5019179;28;20481;-50
2021/06/01 12:24:22;;;;;;;0.40;0.20;;;;;;;24.99;35.02;100195.41;5018696;28;20530;-49
2021/06/01 12:32:15;;;;;;;0.40;0.20;;;;;;;24.07;35.10;100186.34;5024885;28;20867;-50
2021/06/01 13:09:13;;;;;;;0.40;0.20;;;;;;;25.32;35.15;100153.41;5022298;28;20956;-49
2021/06/01 13:19:57;;;;;;;0.50;0.30;;;;;;;24.84;35.85;100139.69;5029025;28;20525;-50
2021/06/01 13:22:47;;;;;;;0.40;0.20;;;;;;;24.73;36.43;100136.06;5027499;28;20948;-50
2021/06/01 13:48:46;;;;;;;0.40;0.20;;;;;;;25.30;35.62;100115.44;5033806;28;20850;-50
2021/06/01 13:56:13;;;;;;;0.40;0.20;;;;;;;24.99;33.65;100109.22;5029062;28;20949;-50
2021/06/01 14:21:00;;;;;;;0.40;0.20;;;;;;;25.22;35.05;100087.22;5025024;28;20468;-50
2021/06/01 15:31:27;;;;;;;0.80;0.80;;;;;;;25.80;35.24;100032.78;5026111;28;20476;-49
2021/06/01 16:21:32;;;;;;;0.60;0.40;;;;;;;25.12;34.37;99993.88;5017933;28;20867;-53
2021/06/01 16:29:45;;;;;;;0.40;0.20;;;;;;;25.07;34.86;99978.81;5024994;28;20451;-53
2021/06/01 17:08:31;;;;;;;0.40;0.30;;;;;;;25.02;35.10;99972.13;5024644;28;20478;-53
2021/06/01 17:13:52;;;;;;;0.40;0.20;;;;;;;25.07;35.34;99967.94;5018435;28;20455;-53
2021/06/01 17:35:32;;;;;;;0.40;0.20;;;;;;;24.59;35.31;99967.06;5021967;28;20445;-53
2021/06/01 17:38:02;;;;;;;0.40;0.20;;;;;;;24.60;35.04;99961.47;5028116;28;20503;-53